createdAt,value
2023-05-23T00:01:08.218Z,100080.63
2023-05-23T00:02:30.596Z,100080.81
2023-05-23T00:03:55.963Z,100075.28
2023-05-23T00:05:18.052Z,100076.34
2023-05-23T00:06:44.817Z,100075.00
2023-05-23T00:08:06.924Z,100077.31
2023-05-23T00:09:29.736Z,100069.09
2023-05-23T00:10:51.663Z,100076.88
2023-05-23T00:12:14.482Z,100074.91
2023-05-23T00:13:37.471Z,100069.81
2023-05-23T00:15:00.698Z,100076.25
2023-05-23T00:16:23.980Z,100071.00
2023-05-23T00:17:47.019Z,100072.88
2023-05-23T00:19:10.249Z,100080.72
2023-05-23T00:20:34.714Z,100077.09
2023-05-23T00:21:58.662Z,100071.94
2023-05-23T00:23:22.515Z,100069.44
2023-05-23T00:24:45.427Z,100069.16
2023-05-23T00:26:07.298Z,100066.00
2023-05-23T00:27:30.361Z,100060.97
2023-05-23T00:28:53.138Z,100061.25
2023-05-23T00:30:16.232Z,100058.56
2023-05-23T00:31:39.503Z,100049.19
2023-05-23T00:33:02.322Z,100051.56
2023-05-23T00:34:24.198Z,100045.44
2023-05-23T00:35:47.216Z,100047.19
2023-05-23T00:37:10.053Z,100047.38
2023-05-23T00:38:31.954Z,100041.50
2023-05-23T00:39:54.783Z,100036.22
2023-05-23T00:41:18.504Z,100031.53
2023-05-23T00:42:41.625Z,100032.56
2023-05-23T00:44:03.474Z,100036.66
2023-05-23T00:45:26.420Z,100042.38
2023-05-23T00:46:54.438Z,100046.88
2023-05-23T00:48:16.652Z,100043.88
2023-05-23T00:49:39.714Z,100045.22
2023-05-23T00:51:02.408Z,100058.34
2023-05-23T00:52:25.770Z,100050.56
2023-05-23T00:53:49.393Z,100054.56
2023-05-23T00:55:12.159Z,100058.59
2023-05-23T00:56:35.296Z,100060.56
2023-05-23T00:57:58.363Z,100060.44
2023-05-23T00:59:22.365Z,100052.28
2023-05-23T01:00:45.955Z,100060.88
2023-05-23T01:02:09.260Z,100063.53
2023-05-23T01:03:32.292Z,100067.13
2023-05-23T01:04:55.599Z,100064.75
2023-05-23T01:06:18.641Z,100065.91
2023-05-23T01:07:40.603Z,100071.94
2023-05-23T01:09:03.776Z,100066.19
2023-05-23T01:10:29.111Z,100070.94
2023-05-23T01:11:59.679Z,100067.84
2023-05-23T01:13:39.048Z,100056.09
2023-05-23T01:15:10.119Z,100060.00
2023-05-23T01:16:36.175Z,100063.91
2023-05-23T01:18:08.482Z,100063.00
2023-05-23T01:19:51.935Z,100069.22
2023-05-23T01:21:18.994Z,100073.00
2023-05-23T01:23:00.447Z,100064.94
2023-05-23T01:24:37.040Z,100065.97
2023-05-23T01:26:19.712Z,100074.97
2023-05-23T01:28:03.030Z,100072.88
2023-05-23T01:29:28.386Z,100073.78
2023-05-23T01:30:53.305Z,100066.31
2023-05-23T01:32:17.236Z,100065.88
2023-05-23T01:33:41.849Z,100066.78
2023-05-23T01:35:06.484Z,100076.22
2023-05-23T01:36:29.345Z,100066.41
2023-05-23T01:37:51.200Z,100076.25
2023-05-23T01:39:14.107Z,100066.31
2023-05-23T01:40:37.320Z,100069.44
2023-05-23T01:41:59.648Z,100077.03
2023-05-23T01:43:25.688Z,100077.97
2023-05-23T01:44:48.817Z,100082.22
2023-05-23T01:46:12.623Z,100074.97
2023-05-23T01:47:35.668Z,100084.28
2023-05-23T01:48:59.990Z,100097.75
2023-05-23T01:50:24.167Z,100087.84
2023-05-23T01:51:46.483Z,100081.34
2023-05-23T01:53:11.204Z,100084.53
2023-05-23T01:54:35.295Z,100082.09
2023-05-23T01:55:58.468Z,100078.84
2023-05-23T01:57:20.968Z,100083.25
2023-05-23T01:58:45.368Z,100072.31
2023-05-23T02:00:10.972Z,100076.69
2023-05-23T02:01:34.579Z,100077.84
2023-05-23T02:02:56.575Z,100080.59
2023-05-23T02:04:19.731Z,100085.88
2023-05-23T02:05:42.847Z,100080.03
2023-05-23T02:07:06.075Z,100081.75
2023-05-23T02:08:28.878Z,100084.22
2023-05-23T02:09:51.761Z,100086.78
2023-05-23T02:11:13.619Z,100085.47
2023-05-23T02:12:36.534Z,100083.72
2023-05-23T02:14:00.964Z,100084.25
2023-05-23T02:15:23.971Z,100090.25
2023-05-23T02:16:46.810Z,100085.84
2023-05-23T02:18:08.851Z,100086.56
2023-05-23T02:19:31.968Z,100086.69
2023-05-23T02:20:53.958Z,100089.22
2023-05-23T02:22:16.791Z,100085.72
2023-05-23T02:23:38.738Z,100083.59
2023-05-23T02:25:01.684Z,100083.97
2023-05-23T02:26:24.731Z,100094.06
2023-05-23T02:27:46.644Z,100092.84
2023-05-23T02:29:10.784Z,100095.72
2023-05-23T02:30:33.610Z,100092.41
2023-05-23T02:31:55.564Z,100095.25
2023-05-23T02:33:19.777Z,100086.22
2023-05-23T02:34:41.855Z,100091.53
2023-05-23T02:36:05.156Z,100098.69
2023-05-23T02:37:27.095Z,100097.56
2023-05-23T02:38:49.935Z,100104.00
2023-05-23T02:40:12.266Z,100101.28
2023-05-23T02:41:35.207Z,100102.00
2023-05-23T02:42:57.377Z,100111.06
2023-05-23T02:44:21.725Z,100109.06
2023-05-23T02:45:43.786Z,100106.69
2023-05-23T02:47:07.498Z,100098.94
2023-05-23T02:48:29.427Z,100108.06
2023-05-23T02:49:52.410Z,100108.28
2023-05-23T02:51:14.558Z,100098.44
2023-05-23T02:52:37.476Z,100104.56
2023-05-23T02:53:59.460Z,100100.44
2023-05-23T02:55:22.708Z,100092.06
2023-05-23T02:56:45.630Z,100089.25
2023-05-23T02:58:09.054Z,100092.91
2023-05-23T02:59:33.323Z,100096.94
2023-05-23T03:00:55.232Z,100094.69
2023-05-23T03:02:18.179Z,100087.31
2023-05-23T03:03:41.677Z,100093.31
2023-05-23T03:05:06.270Z,100092.44
2023-05-23T03:06:29.582Z,100092.91
2023-05-23T03:07:54.856Z,100095.28
2023-05-23T03:09:18.278Z,100094.88
2023-05-23T03:10:40.266Z,100095.88
2023-05-23T03:12:03.169Z,100090.31
2023-05-23T03:13:25.173Z,100096.84
2023-05-23T03:14:49.501Z,100098.03
2023-05-23T03:16:12.624Z,100102.06
2023-05-23T03:17:35.590Z,100110.47
2023-05-23T03:18:57.642Z,100100.38
2023-05-23T03:20:20.832Z,100104.06
2023-05-23T03:21:44.356Z,100107.09
2023-05-23T03:23:07.759Z,100108.06
2023-05-23T03:24:32.130Z,100109.03
2023-05-23T03:25:54.155Z,100105.09
2023-05-23T03:27:17.184Z,100105.22
2023-05-23T03:28:39.162Z,100104.13
2023-05-23T03:30:03.946Z,100102.75
2023-05-23T03:31:26.979Z,100108.28
2023-05-23T03:32:50.076Z,100111.91
2023-05-23T03:34:13.206Z,100110.84
2023-05-23T03:35:36.153Z,100114.09
2023-05-23T03:36:59.067Z,100117.78
2023-05-23T03:38:21.988Z,100115.03
2023-05-23T03:39:44.028Z,100115.50
2023-05-23T03:41:07.178Z,100114.94
2023-05-23T03:42:30.322Z,100120.06
2023-05-23T03:43:53.358Z,100117.00
2023-05-23T03:45:16.696Z,100117.00
2023-05-23T03:46:40.378Z,100108.75
2023-05-23T03:48:02.957Z,100117.13
2023-05-23T03:49:26.263Z,100117.97
2023-05-23T03:50:49.313Z,100113.56
2023-05-23T03:52:11.286Z,100114.41
2023-05-23T03:53:36.537Z,100117.22
2023-05-23T03:54:59.753Z,100113.31
2023-05-23T03:56:22.969Z,100116.69
2023-05-23T03:57:45.129Z,100115.31
2023-05-23T03:59:08.198Z,100118.25
2023-05-23T04:00:31.676Z,100125.16
2023-05-23T04:01:55.187Z,100118.31
2023-05-23T04:03:18.798Z,100117.03
2023-05-23T04:04:42.116Z,100123.84
2023-05-23T04:06:04.702Z,100122.25
2023-05-23T04:07:27.775Z,100121.72
2023-05-23T04:08:50.878Z,100133.59
2023-05-23T04:10:12.969Z,100135.22
2023-05-23T04:11:36.059Z,100128.94
2023-05-23T04:12:58.952Z,100135.50
2023-05-23T04:14:22.567Z,100140.97
2023-05-23T04:15:48.079Z,100140.06
2023-05-23T04:17:10.276Z,100138.84
2023-05-23T04:18:34.419Z,100143.69
2023-05-23T04:19:57.668Z,100149.19
2023-05-23T04:21:19.889Z,100141.25
2023-05-23T04:22:42.792Z,100139.97
2023-05-23T04:24:06.178Z,100144.31
2023-05-23T04:25:28.040Z,100146.78
2023-05-23T04:26:50.851Z,100146.91
2023-05-23T04:28:12.747Z,100139.78
2023-05-23T04:29:36.069Z,100140.66
2023-05-23T04:30:59.366Z,100145.91
2023-05-23T04:32:23.151Z,100138.91
2023-05-23T04:33:46.066Z,100144.19
2023-05-23T04:35:08.732Z,100139.47
2023-05-23T04:36:31.596Z,100141.59
2023-05-23T04:37:56.671Z,100147.91
2023-05-23T04:39:20.110Z,100151.47
2023-05-23T04:40:42.111Z,100147.06
2023-05-23T04:42:07.366Z,100148.16
2023-05-23T04:43:30.173Z,100131.91
2023-05-23T04:44:52.669Z,100150.00
2023-05-23T04:46:16.942Z,100152.03
2023-05-23T04:47:39.970Z,100147.19
2023-05-23T04:49:02.244Z,100151.00
2023-05-23T04:50:25.620Z,100154.97
2023-05-23T04:51:48.584Z,100153.44
2023-05-23T04:53:12.498Z,100150.03
2023-05-23T04:54:36.271Z,100153.34
2023-05-23T04:55:59.359Z,100147.81
2023-05-23T04:57:22.066Z,100155.09
2023-05-23T04:58:45.476Z,100150.34
2023-05-23T05:00:10.390Z,100158.38
2023-05-23T05:01:34.944Z,100155.44
2023-05-23T05:02:57.851Z,100158.81
2023-05-23T05:04:20.898Z,100159.63
2023-05-23T05:05:42.898Z,100165.03
2023-05-23T05:07:06.153Z,100166.16
2023-05-23T05:08:28.537Z,100170.44
2023-05-23T05:09:51.418Z,100166.31
2023-05-23T05:11:14.236Z,100175.88
2023-05-23T05:12:37.212Z,100166.56
2023-05-23T05:13:59.123Z,100173.44
2023-05-23T05:15:22.036Z,100172.38
2023-05-23T05:16:47.043Z,100167.13
2023-05-23T05:18:09.083Z,100176.56
2023-05-23T05:19:32.161Z,100174.13
2023-05-23T05:20:55.956Z,100167.41
2023-05-23T05:22:19.053Z,100186.84
2023-05-23T05:23:42.224Z,100180.28
2023-05-23T05:25:06.444Z,100177.13
2023-05-23T05:26:29.315Z,100176.91
2023-05-23T05:27:52.729Z,100173.56
2023-05-23T05:29:16.039Z,100183.72
2023-05-23T05:30:39.176Z,100175.38
2023-05-23T05:32:03.573Z,100183.13
2023-05-23T05:33:28.443Z,100178.66
2023-05-23T05:34:51.801Z,100179.75
2023-05-23T05:36:14.742Z,100186.09
2023-05-23T05:37:37.539Z,100190.84
2023-05-23T05:39:00.615Z,100186.22
2023-05-23T05:40:23.433Z,100184.19
2023-05-23T05:41:46.274Z,100185.09
2023-05-23T05:43:08.158Z,100192.06
2023-05-23T05:44:31.288Z,100192.22
2023-05-23T05:45:54.213Z,100182.69
2023-05-23T05:47:18.494Z,100189.00
2023-05-23T05:48:41.330Z,100190.41
2023-05-23T05:50:05.180Z,100191.19
2023-05-23T05:51:28.026Z,100181.84
2023-05-23T05:52:51.164Z,100198.84
2023-05-23T05:54:14.038Z,100189.44
2023-05-23T05:55:36.907Z,100192.56
2023-05-23T05:56:59.692Z,100194.66
2023-05-23T05:58:22.557Z,100204.00
2023-05-23T05:59:45.632Z,100200.06
2023-05-23T06:01:07.505Z,100196.81
2023-05-23T06:02:31.785Z,100200.16
2023-05-23T06:03:54.801Z,100188.88
2023-05-23T06:05:17.870Z,100197.16
2023-05-23T06:06:40.705Z,100201.16
2023-05-23T06:08:03.510Z,100196.50
2023-05-23T06:09:26.350Z,100192.47
2023-05-23T06:10:48.361Z,100201.94
2023-05-23T06:12:11.165Z,100196.78
2023-05-23T06:13:34.010Z,100198.88
2023-05-23T06:14:56.842Z,100205.53
2023-05-23T06:16:19.832Z,100199.94
2023-05-23T06:17:44.903Z,100202.72
2023-05-23T06:19:06.990Z,100193.41
2023-05-23T06:20:29.849Z,100199.38
2023-05-23T06:21:52.742Z,100203.56
2023-05-23T06:23:15.562Z,100203.50
2023-05-23T06:24:38.380Z,100200.34
2023-05-23T06:26:01.187Z,100203.09
2023-05-23T06:27:24.025Z,100207.03
2023-05-23T06:28:46.896Z,100193.34
2023-05-23T06:30:10.752Z,100209.56
2023-05-23T06:31:33.727Z,100196.25
2023-05-23T06:32:58.148Z,100205.16
2023-05-23T06:34:21.094Z,100198.38
2023-05-23T06:35:43.936Z,100202.38
2023-05-23T06:37:06.851Z,100206.97
2023-05-23T06:38:33.599Z,100200.16
2023-05-23T06:39:55.626Z,100206.97
2023-05-23T06:41:18.485Z,100216.66
2023-05-23T06:42:40.389Z,100214.38
2023-05-23T06:44:03.286Z,100212.81
2023-05-23T06:45:26.141Z,100218.25
2023-05-23T06:46:49.199Z,100208.31
2023-05-23T06:48:13.364Z,100220.97
2023-05-23T06:49:36.177Z,100211.50
2023-05-23T06:50:59.005Z,100222.31
2023-05-23T06:52:21.824Z,100212.22
2023-05-23T06:53:44.721Z,100220.78
2023-05-23T06:55:08.306Z,100219.16
2023-05-23T06:56:31.177Z,100227.72
2023-05-23T06:57:53.985Z,100220.25
2023-05-23T06:59:17.296Z,100221.34
2023-05-23T07:00:40.397Z,100229.00
2023-05-23T07:02:03.340Z,100222.06
2023-05-23T07:03:27.644Z,100230.59
2023-05-23T07:04:50.571Z,100223.06
2023-05-23T07:06:13.999Z,100228.22
2023-05-23T07:07:36.827Z,100226.38
2023-05-23T07:08:59.717Z,100227.03
2023-05-23T07:10:22.837Z,100227.28
2023-05-23T07:11:48.731Z,100236.41
2023-05-23T07:13:11.631Z,100227.59
2023-05-23T07:14:35.733Z,100230.41
2023-05-23T07:15:58.583Z,100231.69
2023-05-23T07:17:20.610Z,100231.63
2023-05-23T07:18:44.827Z,100224.47
2023-05-23T07:20:09.058Z,100224.56
2023-05-23T07:21:31.919Z,100233.97
2023-05-23T07:22:54.754Z,100231.34
2023-05-23T07:24:17.596Z,100238.88
2023-05-23T07:25:50.147Z,100240.03
2023-05-23T07:27:23.708Z,100239.50
2023-05-23T07:28:46.660Z,100235.09
2023-05-23T07:30:10.629Z,100237.44
2023-05-23T07:31:33.724Z,100243.59
2023-05-23T07:32:56.640Z,100247.78
2023-05-23T07:34:20.906Z,100252.38
2023-05-23T07:35:45.084Z,100235.78
2023-05-23T07:37:07.968Z,100246.44
2023-05-23T07:38:31.051Z,100246.19
2023-05-23T07:39:54.122Z,100258.19
2023-05-23T07:41:17.000Z,100249.25
2023-05-23T07:42:39.903Z,100251.53
2023-05-23T07:44:02.695Z,100248.44
2023-05-23T07:45:25.632Z,100244.97
2023-05-23T07:46:48.734Z,100250.06
2023-05-23T07:48:12.692Z,100258.34
2023-05-23T07:49:36.876Z,100254.84
2023-05-23T07:50:59.797Z,100247.66
2023-05-23T07:52:22.650Z,100255.00
2023-05-23T07:53:45.587Z,100252.19
2023-05-23T07:55:09.263Z,100263.16
2023-05-23T07:56:32.149Z,100252.00
2023-05-23T07:57:56.488Z,100262.16
2023-05-23T07:59:19.385Z,100263.50
2023-05-23T08:00:42.595Z,100264.31
2023-05-23T08:02:06.225Z,100255.75
2023-05-23T08:03:29.107Z,100261.16
2023-05-23T08:04:53.379Z,100260.16
2023-05-23T08:06:16.288Z,100254.66
2023-05-23T08:07:39.092Z,100264.69
2023-05-23T08:09:03.003Z,100258.59
2023-05-23T08:10:28.238Z,100261.16
2023-05-23T08:11:51.101Z,100262.50
2023-05-23T08:13:14.300Z,100265.44
2023-05-23T08:14:49.904Z,100260.16
2023-05-23T08:16:14.068Z,100268.06
2023-05-23T08:17:37.559Z,100268.63
2023-05-23T08:19:00.775Z,100265.22
2023-05-23T08:20:30.684Z,100271.56
2023-05-23T08:21:54.008Z,100261.28
2023-05-23T08:23:17.961Z,100259.88
2023-05-23T08:24:41.358Z,100266.03
2023-05-23T08:26:04.207Z,100263.81
2023-05-23T08:27:26.968Z,100264.97
2023-05-23T08:28:49.815Z,100261.66
2023-05-23T08:30:19.652Z,100263.28
2023-05-23T08:31:42.453Z,100270.31
2023-05-23T08:33:05.581Z,100264.69
2023-05-23T08:34:28.488Z,100254.78
2023-05-23T08:35:52.706Z,100261.59
2023-05-23T08:37:15.479Z,100271.00
2023-05-23T08:38:38.285Z,100270.59
2023-05-23T08:40:01.622Z,100271.72
2023-05-23T08:41:25.949Z,100267.13
2023-05-23T08:42:49.376Z,100269.91
2023-05-23T08:44:12.456Z,100273.91
2023-05-23T08:45:35.924Z,100278.13
2023-05-23T08:47:05.804Z,100273.28
2023-05-23T08:48:30.659Z,100276.72
2023-05-23T08:49:56.429Z,100282.28
2023-05-23T08:51:23.121Z,100283.03
2023-05-23T08:52:51.265Z,100280.19
2023-05-23T08:54:14.228Z,100288.63
2023-05-23T08:55:39.041Z,100282.78
2023-05-23T08:57:02.929Z,100280.91
2023-05-23T08:58:29.226Z,100273.50
2023-05-23T08:59:53.089Z,100279.31
2023-05-23T09:01:18.449Z,100279.22
2023-05-23T09:02:41.998Z,100285.31
2023-05-23T09:04:07.164Z,100281.75
2023-05-23T09:05:30.075Z,100293.63
2023-05-23T09:06:55.766Z,100283.34
2023-05-23T09:08:19.207Z,100289.41
2023-05-23T09:09:42.484Z,100287.31
2023-05-23T09:11:06.920Z,100284.63
2023-05-23T09:12:29.562Z,100290.75
2023-05-23T09:13:52.434Z,100291.84
2023-05-23T09:15:16.993Z,100293.25
2023-05-23T09:16:39.821Z,100287.50
2023-05-23T09:18:03.367Z,100281.16
2023-05-23T09:19:26.472Z,100287.22
2023-05-23T09:20:49.402Z,100283.97
2023-05-23T09:22:13.689Z,100290.75
2023-05-23T09:23:39.383Z,100291.66
2023-05-23T09:25:02.216Z,100293.16
2023-05-23T09:26:25.892Z,100295.47
2023-05-23T09:27:48.677Z,100298.34
2023-05-23T09:29:11.523Z,100297.41
2023-05-23T09:30:35.566Z,100297.66
2023-05-23T09:32:01.653Z,100291.59
2023-05-23T09:33:24.501Z,100290.97
2023-05-23T09:34:57.505Z,100296.53
2023-05-23T09:36:20.829Z,100309.56
2023-05-23T09:37:46.998Z,100296.81
2023-05-23T09:39:13.094Z,100301.78
2023-05-23T09:40:36.063Z,100299.63
2023-05-23T09:42:00.388Z,100297.75
2023-05-23T09:43:23.741Z,100302.66
2023-05-23T09:44:46.613Z,100306.34
2023-05-23T09:46:11.128Z,100303.00
2023-05-23T09:47:34.046Z,100298.97
2023-05-23T09:48:57.009Z,100302.06
2023-05-23T09:50:19.979Z,100307.69
2023-05-23T09:51:42.800Z,100304.50
2023-05-23T09:53:07.158Z,100307.72
2023-05-23T09:54:30.628Z,100308.19
2023-05-23T09:55:58.520Z,100302.53
2023-05-23T09:57:24.261Z,100313.00
2023-05-23T09:58:49.674Z,100298.06
2023-05-23T10:00:14.158Z,100307.53
2023-05-23T10:01:37.623Z,100309.28
2023-05-23T10:03:11.519Z,100295.69
2023-05-23T10:04:36.154Z,100305.25
2023-05-23T10:06:02.653Z,100309.16
2023-05-23T10:07:28.212Z,100318.50
2023-05-23T10:08:57.934Z,100321.06
2023-05-23T10:10:21.711Z,100312.84
2023-05-23T10:12:20.585Z,100318.53
2023-05-23T10:13:46.192Z,100307.25
2023-05-23T10:15:11.154Z,100317.47
2023-05-23T10:16:41.201Z,100303.97
2023-05-23T10:18:09.181Z,100310.31
2023-05-23T10:19:39.571Z,100318.97
2023-05-23T10:21:08.688Z,100311.41
2023-05-23T10:22:33.712Z,100316.19
2023-05-23T10:24:00.395Z,100307.78
2023-05-23T10:25:23.541Z,100311.38
2023-05-23T10:26:45.985Z,100310.75
2023-05-23T10:28:09.132Z,100313.56
2023-05-23T10:29:33.764Z,100310.34
2023-05-23T10:30:56.685Z,100312.59
2023-05-23T10:32:20.257Z,100306.38
2023-05-23T10:33:51.856Z,100312.69
2023-05-23T10:35:22.077Z,100309.84
2023-05-23T10:36:54.630Z,100320.47
2023-05-23T10:38:35.280Z,100321.75
2023-05-23T10:40:05.950Z,100322.19
2023-05-23T10:41:35.249Z,100328.88
2023-05-23T10:43:06.811Z,100322.00
2023-05-23T10:44:30.899Z,100319.13
2023-05-23T10:45:53.752Z,100310.44
2023-05-23T10:47:29.223Z,100325.53
2023-05-23T10:48:57.743Z,100318.97
2023-05-23T10:50:34.341Z,100322.09
2023-05-23T10:51:57.204Z,100327.59
2023-05-23T10:53:20.042Z,100320.72
2023-05-23T10:54:45.257Z,100328.34
2023-05-23T10:56:11.613Z,100324.47
2023-05-23T10:57:34.447Z,100327.09
2023-05-23T10:58:58.480Z,100329.69
2023-05-23T11:00:25.051Z,100328.94
2023-05-23T11:01:48.124Z,100331.06
2023-05-23T11:03:11.807Z,100336.34
2023-05-23T11:04:34.889Z,100334.50
2023-05-23T11:05:57.803Z,100339.56
2023-05-23T11:07:31.301Z,100336.41
2023-05-23T11:09:04.804Z,100337.59
2023-05-23T11:10:29.946Z,100336.84
2023-05-23T11:12:00.678Z,100342.88
2023-05-23T11:13:24.708Z,100340.13
2023-05-23T11:14:55.642Z,100342.16
2023-05-23T11:16:26.014Z,100342.63
2023-05-23T11:17:54.677Z,100348.78
2023-05-23T11:19:28.309Z,100351.53
2023-05-23T11:20:55.553Z,100351.53
2023-05-23T11:22:18.804Z,100341.19
2023-05-23T11:23:42.665Z,100346.28
2023-05-23T11:25:09.242Z,100347.84
2023-05-23T11:26:33.074Z,100347.69
2023-05-23T11:27:57.336Z,100360.44
2023-05-23T11:29:20.506Z,100359.50
2023-05-23T11:30:43.475Z,100354.72
2023-05-23T11:32:16.811Z,100353.28
2023-05-23T11:33:40.365Z,100352.81
2023-05-23T11:35:05.209Z,100352.88
2023-05-23T11:36:28.759Z,100352.47
2023-05-23T11:37:51.820Z,100357.47
2023-05-23T11:39:15.423Z,100351.53
2023-05-23T11:40:39.887Z,100356.25
2023-05-23T11:42:03.822Z,100357.03
2023-05-23T11:43:27.948Z,100358.06
2023-05-23T11:44:51.331Z,100352.88
2023-05-23T11:46:14.153Z,100351.72
2023-05-23T11:47:41.949Z,100359.22
2023-05-23T11:49:11.974Z,100344.66
2023-05-23T11:50:35.691Z,100360.22
2023-05-23T11:51:59.416Z,100349.09
2023-05-23T11:53:25.628Z,100355.72
2023-05-23T11:54:48.794Z,100358.16
2023-05-23T11:56:12.130Z,100358.00
2023-05-23T11:57:35.043Z,100359.16
2023-05-23T11:58:59.200Z,100362.03
2023-05-23T12:00:22.239Z,100359.75
2023-05-23T12:01:45.334Z,100361.31
2023-05-23T12:03:09.380Z,100359.69
2023-05-23T12:04:32.379Z,100352.88
2023-05-23T12:05:56.166Z,100362.13
2023-05-23T12:07:20.608Z,100351.16
2023-05-23T12:08:43.441Z,100360.44
2023-05-23T12:10:07.132Z,100354.44
2023-05-23T12:11:32.510Z,100365.56
2023-05-23T12:12:55.448Z,100357.47
2023-05-23T12:14:19.747Z,100367.19
2023-05-23T12:15:42.869Z,100368.09
2023-05-23T12:17:06.024Z,100371.34
2023-05-23T12:18:30.521Z,100370.94
2023-05-23T12:19:54.161Z,100377.81
2023-05-23T12:21:16.961Z,100383.75
2023-05-23T12:22:39.999Z,100385.16
2023-05-23T12:24:13.987Z,100389.41
2023-05-23T12:25:42.496Z,100386.94
2023-05-23T12:27:05.849Z,100396.94
2023-05-23T12:28:36.890Z,100401.47
2023-05-23T12:30:09.507Z,100390.69
2023-05-23T12:31:32.537Z,100394.06
2023-05-23T12:32:55.717Z,100397.53
2023-05-23T12:34:18.607Z,100397.22
2023-05-23T12:35:44.605Z,100399.81
2023-05-23T12:37:19.069Z,100398.66
2023-05-23T12:38:45.622Z,100400.25
2023-05-23T12:40:14.196Z,100409.00
2023-05-23T12:41:37.329Z,100397.97
2023-05-23T12:43:00.603Z,100409.66
2023-05-23T12:44:23.851Z,100415.03
2023-05-23T12:45:48.172Z,100409.97
2023-05-23T12:47:11.355Z,100401.88
2023-05-23T12:48:34.256Z,100413.25
2023-05-23T12:49:57.096Z,100414.22
2023-05-23T12:51:21.271Z,100410.34
2023-05-23T12:52:44.683Z,100409.69
2023-05-23T12:54:09.208Z,100410.34
2023-05-23T12:55:32.288Z,100411.31
2023-05-23T12:56:55.143Z,100419.75
2023-05-23T12:58:18.149Z,100409.88
2023-05-23T12:59:40.977Z,100416.69
2023-05-23T13:01:05.587Z,100413.25
2023-05-23T13:02:28.292Z,100413.44
2023-05-23T13:03:51.258Z,100423.63
2023-05-23T13:05:14.135Z,100425.75
2023-05-23T13:06:37.021Z,100426.91
2023-05-23T13:08:00.187Z,100420.56
2023-05-23T13:09:23.247Z,100418.44
2023-05-23T13:10:46.116Z,100428.97
2023-05-23T13:12:09.583Z,100426.06
2023-05-23T13:13:32.865Z,100433.22
2023-05-23T13:14:55.674Z,100429.34
2023-05-23T13:16:20.124Z,100429.47
2023-05-23T13:17:46.180Z,100423.81
2023-05-23T13:19:12.754Z,100428.66
2023-05-23T13:20:35.709Z,100439.84
2023-05-23T13:21:58.996Z,100440.81
2023-05-23T13:23:21.798Z,100442.75
2023-05-23T13:24:44.663Z,100428.84
2023-05-23T13:26:08.013Z,100431.72
2023-05-23T13:27:30.931Z,100432.06
2023-05-23T13:28:53.984Z,100434.69
2023-05-23T13:30:17.040Z,100432.06
2023-05-23T13:31:41.363Z,100436.59
2023-05-23T13:33:04.935Z,100438.72
2023-05-23T13:34:28.674Z,100440.16
2023-05-23T13:35:52.428Z,100446.50
2023-05-23T13:37:15.667Z,100440.84
2023-05-23T13:38:38.737Z,100440.16
2023-05-23T13:40:03.922Z,100443.59
2023-05-23T13:41:27.476Z,100447.47
2023-05-23T13:42:51.895Z,100447.31
2023-05-23T13:44:14.880Z,100453.47
2023-05-23T13:45:38.169Z,100451.72
2023-05-23T13:47:13.050Z,100450.50
2023-05-23T13:48:36.325Z,100459.91
2023-05-23T13:49:59.196Z,100463.31
2023-05-23T13:51:22.592Z,100464.09
2023-05-23T13:52:48.288Z,100464.41
2023-05-23T13:54:13.343Z,100462.47
2023-05-23T13:55:36.650Z,100466.94
2023-05-23T13:56:59.788Z,100470.16
2023-05-23T13:58:22.736Z,100474.16
2023-05-23T13:59:44.578Z,100479.56
2023-05-23T14:01:07.420Z,100474.38
2023-05-23T14:02:32.110Z,100487.75
2023-05-23T14:03:54.959Z,100484.78
2023-05-23T14:05:19.348Z,100488.56
2023-05-23T14:06:42.293Z,100491.69
2023-05-23T14:08:05.370Z,100485.00
2023-05-23T14:09:28.507Z,100492.06
2023-05-23T14:10:51.346Z,100499.03
2023-05-23T14:12:13.222Z,100505.94
2023-05-23T14:13:36.042Z,100505.50
2023-05-23T14:14:57.877Z,100498.41
2023-05-23T14:16:20.710Z,100499.72
2023-05-23T14:17:45.029Z,100504.94
2023-05-23T14:19:07.960Z,100506.59
2023-05-23T14:20:30.974Z,100507.19
2023-05-23T14:21:54.072Z,100503.72
2023-05-23T14:23:16.868Z,100502.13
2023-05-23T14:24:40.046Z,100510.84
2023-05-23T14:26:02.896Z,100513.75
2023-05-23T14:27:26.389Z,100505.00
2023-05-23T14:28:49.308Z,100507.25
2023-05-23T14:30:12.702Z,100506.13
2023-05-23T14:31:35.567Z,100506.63
2023-05-23T14:33:00.338Z,100503.53
2023-05-23T14:34:23.360Z,100515.47
2023-05-23T14:35:45.385Z,100513.75
2023-05-23T14:37:08.343Z,100513.94
2023-05-23T14:38:31.128Z,100523.72
2023-05-23T14:39:53.943Z,100518.94
2023-05-23T14:41:16.934Z,100533.94
2023-05-23T14:42:39.898Z,100534.97
2023-05-23T14:44:04.050Z,100530.53
2023-05-23T14:45:27.320Z,100538.31
2023-05-23T14:46:50.182Z,100543.34
2023-05-23T14:48:14.391Z,100541.72
2023-05-23T14:49:37.174Z,100554.97
2023-05-23T14:51:01.623Z,100543.56
2023-05-23T14:52:24.702Z,100551.84
2023-05-23T14:53:47.611Z,100551.34
2023-05-23T14:55:10.689Z,100546.47
2023-05-23T14:56:33.677Z,100556.81
2023-05-23T14:57:56.695Z,100565.50
2023-05-23T14:59:18.523Z,100565.38
2023-05-23T15:00:41.634Z,100562.03
2023-05-23T15:02:06.132Z,100563.22
2023-05-23T15:03:30.484Z,100565.25
2023-05-23T15:04:53.868Z,100566.59
2023-05-23T15:06:16.692Z,100557.53
2023-05-23T15:07:40.053Z,100561.28
2023-05-23T15:09:02.497Z,100574.84
2023-05-23T15:10:25.445Z,100565.16
2023-05-23T15:11:49.345Z,100565.97
2023-05-23T15:13:12.361Z,100573.19
2023-05-23T15:14:35.183Z,100568.50
2023-05-23T15:15:57.969Z,100577.88
2023-05-23T15:17:23.601Z,100576.25
2023-05-23T15:18:50.037Z,100577.34
2023-05-23T15:20:13.397Z,100573.91
2023-05-23T15:21:35.577Z,100583.75
2023-05-23T15:22:58.395Z,100584.47
2023-05-23T15:24:21.667Z,100583.38
2023-05-23T15:25:49.644Z,100588.44
2023-05-23T15:28:41.650Z,100583.09
2023-05-23T15:30:05.641Z,100595.56
2023-05-23T15:31:28.525Z,100594.78
2023-05-23T15:32:51.595Z,100591.53
2023-05-23T15:34:16.286Z,100593.72
2023-05-23T15:35:39.306Z,100601.88
2023-05-23T15:37:01.237Z,100595.56
2023-05-23T15:38:24.266Z,100596.19
2023-05-23T15:39:48.636Z,100590.72
2023-05-23T15:41:11.650Z,100598.94
2023-05-23T15:42:33.601Z,100605.44
2023-05-23T15:43:56.478Z,100605.34
2023-05-23T15:45:19.320Z,100606.97
2023-05-23T15:46:42.180Z,100599.84
2023-05-23T15:48:05.323Z,100607.38
2023-05-23T15:49:29.675Z,100604.13
2023-05-23T15:50:52.505Z,100604.53
2023-05-23T15:52:15.389Z,100615.00
2023-05-23T15:53:48.301Z,100610.03
2023-05-23T15:55:21.340Z,100617.44
2023-05-23T15:56:45.728Z,100611.53
2023-05-23T15:58:09.502Z,100609.81
2023-05-23T15:59:32.462Z,100618.44
2023-05-23T16:00:55.336Z,100610.03
2023-05-23T16:02:18.989Z,100612.47